This is the latest recevied weather packets stored in our database for station/object KD2ZLA. If no packets are shown the sender has not sent any weather packets the latest 1 day(s).
| Time | Temp. | Humidity | Pressure | Rain* | Wind** | Luminosity | Snow |
|---|---|---|---|---|---|---|---|
| 1777991416 | 21.11° C | 56% | 1000.8 hPa | 0 mm | 2.68 m/s, 237° | 341 W/m² | - |
| 1777991113 | 21.11° C | 55% | 1000.5 hPa | 0 mm | 5.36 m/s, 295° | 347 W/m² | - |
| 1777990811 | 21.11° C | 56% | 1000.6 hPa | 0 mm | 4.02 m/s, 252° | 362 W/m² | - |
| 1777990508 | 20.56° C | 56% | 1000.5 hPa | 0 mm | 5.36 m/s, 298° | 260 W/m² | - |
| 1777990205 | 21.11° C | 56% | 1000.5 hPa | 0 mm | 2.68 m/s, 246° | 230 W/m² | - |
| 1777989901 | 21.11° C | 55% | 1000.3 hPa | 0 mm | 4.47 m/s, 247° | 495 W/m² | - |
| 1777989598 | 20.56° C | 55% | 1000.4 hPa | 0 mm | 1.79 m/s, 259° | 475 W/m² | - |
| 1777989295 | 20.56° C | 57% | 1000.6 hPa | 0 mm | 4.02 m/s, 272° | 361 W/m² | - |
| 1777988991 | 20.56° C | 57% | 1000.5 hPa | 0 mm | 2.68 m/s, 258° | 384 W/m² | - |
| 1777988687 | 20.56° C | 58% | 1000.8 hPa | 0 mm | 2.68 m/s, 288° | 315 W/m² | - |
| 1777988384 | 20.56° C | 57% | 1000.4 hPa | 0 mm | 4.02 m/s, 239° | 346 W/m² | - |
| 1777988082 | 20.56° C | 59% | 1000.8 hPa | 0 mm | 1.79 m/s, 240° | 343 W/m² | - |
| 1777987777 | 20° C | 60% | 1000.6 hPa | 0 mm | 3.58 m/s, 277° | 412 W/m² | - |
| 1777987474 | 20° C | 61% | 1000.6 hPa | 0 mm | 2.24 m/s, 273° | 342 W/m² | - |
| 1777987171 | 20° C | 62% | 1000.6 hPa | 0 mm | 5.81 m/s, 236° | 469 W/m² | - |
| 1777986868 | 19.44° C | 64% | 1000.5 hPa | 0 mm | 1.79 m/s, 263° | 476 W/m² | - |
| 1777986566 | 18.89° C | 66% | 1000.6 hPa | 0 mm | 2.68 m/s, 250° | 345 W/m² | - |
| 1777986264 | 18.33° C | 69% | 1000.8 hPa | 0 mm | 2.68 m/s, 226° | 382 W/m² | - |
| 1777985961 | 17.78° C | 71% | 1000.9 hPa | 0 mm | 1.34 m/s, 242° | 324 W/m² | - |
| 1777985659 | 16.67° C | 75% | 1001 hPa | 0 mm | 3.13 m/s, 241° | 284 W/m² | - |
| 1777985355 | 16.11° C | 78% | 1001.2 hPa | 0 mm | 0.89 m/s, 183° | 143 W/m² | - |
| 1777985052 | 16.11° C | 79% | 1001.2 hPa | 0.51 mm | 2.24 m/s, 222° | 110 W/m² | - |
| 1777984748 | 16.11° C | 79% | 1001.1 hPa | 0.51 mm | 2.24 m/s, 239° | 72 W/m² | - |
| 1777984445 | 16.11° C | 77% | 1001.4 hPa | 1.78 mm | 4.02 m/s, 251° | 80 W/m² | - |
| 1777984140 | 16.67° C | 75% | 1001.2 hPa | 1.78 mm | 4.02 m/s, 234° | 100 W/m² | - |
* Rain latest hour (hover to see other rain measurements)
** Current wind speed in m/s (hover to see current wind gust speed)